Time;durP1;ratioP1;P1;durP2;ratioP2;P2;SDS_P1;SDS_P2;PMS_P1;PMS_P2;Temp;Humidity;BMP_temperature;BMP_pressure;BME280_temperature;BME280_humidity;BME280_pressure;Samples;Min_cycle;Max_cycle;Signal;HPM_P1;HPM_P2
2022/11/03 00:00:10;;;;;;;6.72;3.30;;;;;;;12.60;51.04;101064.81;827516;23;1285;-77
2022/11/03 00:00:32;;;;;;;8.50;3.40;;;;;;;12.57;50.58;101050.78;828886;23;801;-78
2022/11/03 00:00:52;;;;;;;10.03;3.23;;;;;;;12.56;50.56;101052.53;827386;23;777;-80
2022/11/03 00:01:13;;;;;;;10.68;3.13;;;;;;;12.54;50.60;101055.94;831477;23;1372;-80
2022/11/03 00:02:07;;;;;;;9.20;3.10;;;;;;;12.58;50.96;101066.53;832967;23;1029;-80
2022/11/03 00:02:28;;;;;;;6.75;2.90;;;;;;;12.53;50.67;101056.81;833053;23;846;-77
2022/11/03 00:02:49;;;;;;;8.15;3.20;;;;;;;12.56;50.86;101047.28;828048;23;1025;-78
2022/11/03 00:03:09;;;;;;;7.15;3.20;;;;;;;12.60;50.83;101050.88;827694;23;1144;-78
2022/11/03 00:03:30;;;;;;;7.70;3.10;;;;;;;12.64;50.62;101043.97;829211;23;884;-78
2022/11/03 00:03:51;;;;;;;8.23;3.20;;;;;;;12.66;50.87;101050.13;828035;23;1161;-78
2022/11/03 00:04:13;;;;;;;8.70;3.10;;;;;;;12.57;50.57;101050.78;823997;24;1121;-78
2022/11/03 00:04:34;;;;;;;8.88;3.03;;;;;;;12.50;50.69;101046.22;826906;23;979;-78
2022/11/03 00:04:54;;;;;;;9.30;2.78;;;;;;;12.48;50.87;101048.84;829332;23;898;-79
2022/11/03 00:06:06;;;;;;;7.22;2.70;;;;;;;12.44;51.27;101042.66;829285;23;800;-78
2022/11/03 00:06:26;;;;;;;10.05;2.75;;;;;;;12.41;51.15;101034.69;825159;24;972;-78
2022/11/03 00:06:50;;;;;;;12.37;3.00;;;;;;;12.37;51.10;101034.59;827832;23;1201;-78
2022/11/03 00:07:11;;;;;;;14.25;3.30;;;;;;;12.36;51.30;101038.06;831804;23;1275;-78
2022/11/03 00:07:31;;;;;;;10.93;3.45;;;;;;;12.36;51.61;101045.91;827988;23;1155;-78
2022/11/03 00:07:52;;;;;;;9.77;3.13;;;;;;;12.37;51.32;101039.81;827981;23;1289;-78
2022/11/03 00:08:12;;;;;;;8.07;3.10;;;;;;;12.40;51.24;101039.91;833237;23;938;-78
2022/11/03 00:08:38;;;;;;;8.75;3.10;;;;;;;12.46;51.34;101050.50;825148;23;977;-78
2022/11/03 00:09:00;;;;;;;11.77;3.30;;;;;;;12.37;51.06;101034.59;833009;23;829;-78
2022/11/03 00:09:22;;;;;;;11.00;3.10;;;;;;;12.46;51.27;101050.50;825396;23;1147;-77
2022/11/03 00:09:43;;;;;;;10.90;3.00;;;;;;;12.39;51.32;101032.88;831137;23;1290;-78
2022/11/03 00:10:04;;;;;;;7.63;3.00;;;;;;;12.40;51.31;101039.91;827827;23;1111;-78
2022/11/03 00:10:24;;;;;;;7.90;3.30;;;;;;;12.41;51.35;101037.31;829108;23;999;-77
2022/11/03 00:10:48;;;;;;;8.13;3.30;;;;;;;12.41;51.44;101034.69;827910;23;1129;-76
2022/11/03 00:11:13;;;;;;;9.02;3.40;;;;;;;12.40;51.11;101034.69;827789;23;1275;-78
2022/11/03 00:11:39;;;;;;;8.30;3.10;;;;;;;12.39;51.32;101031.16;829248;23;915;-78
2022/11/03 00:12:00;;;;;;;7.05;2.90;;;;;;;12.37;51.45;101034.59;829338;23;807;-78
2022/11/03 00:12:21;;;;;;;6.95;2.75;;;;;;;12.45;51.10;101040.91;823789;23;1375;-77
2022/11/03 00:12:41;;;;;;;7.93;3.00;;;;;;;12.43;51.08;101039.97;827954;23;1173;-77
2022/11/03 00:13:02;;;;;;;8.43;3.00;;;;;;;12.48;51.54;101043.59;827838;23;1085;-77
2022/11/03 00:13:22;;;;;;;10.80;3.25;;;;;;;12.49;51.33;101029.66;829213;23;986;-78
2022/11/03 00:13:43;;;;;;;10.00;3.10;;;;;;;12.42;51.39;101033.84;827742;23;1939;-78
2022/11/03 00:14:05;;;;;;;9.50;3.40;;;;;;;12.45;51.19;101043.50;823943;24;1278;-78
2022/11/03 00:14:25;;;;;;;6.03;3.05;;;;;;;12.41;51.31;101041.69;823382;24;1210;-78
2022/11/03 00:14:46;;;;;;;5.93;3.13;;;;;;;12.36;51.26;101044.19;826782;23;1264;-77
2022/11/03 00:15:07;;;;;;;7.07;2.90;;;;;;;12.34;51.33;101038.91;825173;24;1011;-78
2022/11/03 00:15:27;;;;;;;7.60;2.95;;;;;;;12.34;51.64;101038.91;829366;23;1101;-78
2022/11/03 00:15:49;;;;;;;7.53;3.05;;;;;;;12.32;51.61;101027.53;828068;23;1039;-77
2022/11/03 00:16:11;;;;;;;7.70;3.10;;;;;;;12.33;51.42;101033.63;825295;23;1047;-78
2022/11/03 00:16:32;;;;;;;7.50;3.15;;;;;;;12.33;51.88;101034.53;823926;23;1259;-77
2022/11/03 00:16:53;;;;;;;8.15;3.22;;;;;;;12.34;51.59;101031.06;829556;23;800;-78
2022/11/03 00:17:14;;;;;;;8.15;3.33;;;;;;;12.30;51.75;101030.94;828068;23;1139;-78
2022/11/03 00:17:34;;;;;;;7.80;2.80;;;;;;;12.28;51.69;101027.41;825396;24;1001;-78
2022/11/03 00:17:55;;;;;;;7.43;2.70;;;;;;;12.27;51.80;101026.50;820223;24;1142;-78
2022/11/03 00:18:15;;;;;;;6.10;2.70;;;;;;;12.29;51.78;101032.66;824215;24;1258;-75
2022/11/03 00:18:36;;;;;;;6.30;2.90;;;;;;;12.30;51.46;101029.19;825394;23;1114;-78
2022/11/03 00:18:57;;;;;;;7.65;3.20;;;;;;;12.30;51.75;101034.41;828005;23;1237;-78
2022/11/03 00:19:18;;;;;;;7.55;3.00;;;;;;;12.28;51.87;101036.13;824189;24;1242;-78
2022/11/03 00:19:38;;;;;;;6.90;2.92;;;;;;;12.32;51.99;101037.09;827729;23;1028;-78
2022/11/03 00:19:59;;;;;;;6.90;2.80;;;;;;;12.37;51.63;101043.34;827968;23;1124;-78
2022/11/03 00:20:19;;;;;;;8.82;2.90;;;;;;;12.27;51.70;101031.75;825676;24;997;-80
2022/11/03 00:20:40;;;;;;;9.27;2.93;;;;;;;12.31;51.94;101030.09;832061;23;1280;-80
2022/11/03 00:21:09;;;;;;;11.38;3.00;;;;;;;12.29;51.73;101031.78;828233;23;1044;-78
2022/11/03 00:21:30;;;;;;;10.68;3.30;;;;;;;12.30;51.99;101031.81;820287;24;1042;-79
2022/11/03 00:21:51;;;;;;;8.98;3.28;;;;;;;12.23;51.95;101032.50;828090;23;1194;-79
2022/11/03 00:22:12;;;;;;;7.82;3.35;;;;;;;12.21;52.00;101026.34;825497;24;978;-78
2022/11/03 00:22:32;;;;;;;8.57;3.47;;;;;;;12.22;51.80;101024.63;828057;23;1198;-78
2022/11/03 00:22:53;;;;;;;9.18;3.30;;;;;;;12.17;51.76;101021.91;824265;24;1262;-78
2022/11/03 00:23:13;;;;;;;9.53;3.20;;;;;;;12.18;52.07;101019.31;828047;23;1130;-79
2022/11/03 00:23:38;;;;;;;7.95;3.00;;;;;;;12.29;52.06;101042.25;833372;23;1033;-79
2022/11/03 00:24:03;;;;;;;6.18;3.17;;;;;;;12.20;52.04;101021.97;831927;23;1104;-78
2022/11/03 00:24:23;;;;;;;6.20;3.15;;;;;;;12.17;52.18;101019.28;831485;23;1363;-79
2022/11/03 00:24:44;;;;;;;7.10;3.10;;;;;;;12.21;51.87;101031.59;829561;23;744;-78
2022/11/03 00:25:05;;;;;;;7.60;3.13;;;;;;;12.22;51.94;101035.97;827968;23;1215;-78
2022/11/03 00:25:26;;;;;;;8.15;3.20;;;;;;;12.25;52.10;101043.00;833378;23;974;-78
2022/11/03 00:25:46;;;;;;;6.80;2.80;;;;;;;12.21;51.84;101028.97;833417;23;834;-80
2022/11/03 00:26:09;;;;;;;8.20;2.75;;;;;;;12.29;51.88;101043.13;828711;23;1312;-79
2022/11/03 00:26:32;;;;;;;7.90;2.65;;;;;;;12.26;51.99;101035.22;829154;23;893;-80
2022/11/03 00:26:53;;;;;;;7.53;2.80;;;;;;;12.17;51.71;101022.78;833324;23;776;-79
2022/11/03 00:27:14;;;;;;;6.45;2.80;;;;;;;12.26;51.86;101037.81;831988;23;1151;-79
2022/11/03 00:27:34;;;;;;;6.05;2.80;;;;;;;12.19;51.73;101021.06;831866;23;1073;-80
2022/11/03 00:27:55;;;;;;;7.03;2.90;;;;;;;12.21;51.90;101034.19;824172;23;1130;-79
2022/11/03 00:28:16;;;;;;;8.63;3.08;;;;;;;12.22;51.58;101037.72;821848;24;942;-77
2022/11/03 00:28:37;;;;;;;9.18;3.10;;;;;;;12.20;51.93;101028.09;821581;24;886;-80
2022/11/03 00:29:00;;;;;;;9.43;2.88;;;;;;;12.18;52.00;101028.91;821738;24;749;-79
2022/11/03 00:29:21;;;;;;;8.98;2.80;;;;;;;12.22;51.91;101024.63;825422;24;1119;-79
2022/11/03 00:29:41;;;;;;;7.68;2.80;;;;;;;12.23;51.82;101032.50;827776;23;1052;-80
2022/11/03 00:30:02;;;;;;;7.05;2.97;;;;;;;12.24;51.83;101030.78;830162;23;1030;-80
2022/11/03 00:30:23;;;;;;;6.50;2.90;;;;;;;12.25;51.94;101036.06;830835;23;1155;-78
2022/11/03 00:30:43;;;;;;;7.33;3.03;;;;;;;12.30;51.91;101044.91;828060;23;1315;-79
2022/11/03 00:31:15;;;;;;;9.32;3.47;;;;;;;12.31;52.02;101038.81;828008;23;1439;-80
2022/11/03 00:31:38;;;;;;;11.57;3.80;;;;;;;12.36;51.93;101045.91;824185;24;896;-79
2022/11/03 00:31:58;;;;;;;8.00;3.28;;;;;;;12.29;51.75;101032.66;817794;24;800;-80
2022/11/03 00:32:19;;;;;;;7.15;2.83;;;;;;;12.36;51.82;101038.06;823676;24;1156;-80
2022/11/03 00:32:39;;;;;;;7.38;2.90;;;;;;;12.33;51.91;101036.25;828226;23;1217;-80
2022/11/03 00:33:00;;;;;;;10.67;2.97;;;;;;;12.30;51.84;101029.19;820223;24;1103;-79
2022/11/03 00:33:25;;;;;;;10.52;2.88;;;;;;;12.29;51.66;101037.03;820161;24;1262;-79
2022/11/03 00:33:47;;;;;;;10.57;3.30;;;;;;;12.26;51.57;101032.59;827959;23;1940;-80
2022/11/03 00:34:08;;;;;;;7.97;3.33;;;;;;;12.28;51.81;101024.78;820237;24;1018;-79
2022/11/03 00:34:28;;;;;;;10.25;3.70;;;;;;;12.27;51.99;101029.13;820353;24;1266;-80
2022/11/03 00:34:49;;;;;;;9.07;3.40;;;;;;;12.35;51.77;101042.38;820321;24;1236;-79
2022/11/03 00:35:09;;;;;;;9.07;3.33;;;;;;;12.34;51.79;101031.06;828070;23;1259;-80
2022/11/03 00:35:30;;;;;;;6.90;2.80;;;;;;;12.38;51.78;101029.41;829256;23;890;-80
2022/11/03 00:35:59;;;;;;;6.32;2.80;;;;;;;12.40;51.88;101030.31;828062;23;1085;-80
2022/11/03 00:36:22;;;;;;;6.45;3.40;;;;;;;12.43;51.83;101026.88;833310;23;1059;-79
2022/11/03 00:36:43;;;;;;;6.93;3.47;;;;;;;12.52;51.60;101034.97;833213;23;735;-79
2022/11/03 00:37:04;;;;;;;7.95;2.97;;;;;;;12.44;51.80;101026.03;827084;23;979;-80
2022/11/03 00:37:24;;;;;;;8.47;3.20;;;;;;;12.44;51.87;101018.19;824275;23;1435;-79
2022/11/03 00:37:45;;;;;;;13.68;3.50;;;;;;;12.46;51.64;101026.94;820491;24;1134;-80
2022/11/03 00:38:05;;;;;;;13.30;3.43;;;;;;;12.45;51.37;101030.44;820255;24;1246;-80
2022/11/03 00:38:28;;;;;;;12.70;3.20;;;;;;;12.41;51.38;101015.50;821638;24;1002;-80
2022/11/03 00:38:48;;;;;;;7.38;2.80;;;;;;;12.41;51.63;101015.50;816508;24;1268;-79
2022/11/03 00:39:10;;;;;;;5.45;2.70;;;;;;;12.40;51.74;101019.84;821841;24;893;-79
2022/11/03 00:39:31;;;;;;;6.43;2.80;;;;;;;12.38;51.97;101020.66;821488;24;1030;-80
2022/11/03 00:39:51;;;;;;;8.30;3.40;;;;;;;12.40;51.59;101018.97;829201;23;720;-80
2022/11/03 00:40:12;;;;;;;7.75;3.25;;;;;;;12.45;51.76;101025.19;828180;23;1119;-80
2022/11/03 00:40:32;;;;;;;7.60;3.20;;;;;;;12.45;51.57;101019.94;827983;23;1202;-79
2022/11/03 00:40:54;;;;;;;6.40;2.70;;;;;;;12.40;51.86;101032.06;825781;24;763;-79
2022/11/03 00:41:16;;;;;;;6.93;3.10;;;;;;;12.48;51.95;101030.50;824419;24;1433;-79
2022/11/03 00:41:37;;;;;;;7.40;3.30;;;;;;;12.53;51.52;101034.09;837152;23;822;-80
2022/11/03 00:41:58;;;;;;;8.52;3.60;;;;;;;12.49;51.48;101019.19;837403;23;794;-79
2022/11/03 00:42:18;;;;;;;7.70;3.42;;;;;;;12.59;51.70;101031.66;835563;23;1331;-80
2022/11/03 00:42:39;;;;;;;7.80;3.50;;;;;;;12.52;51.60;101019.25;828198;23;1111;-79
2022/11/03 00:42:59;;;;;;;8.02;3.38;;;;;;;12.59;51.71;101030.75;825428;24;783;-80
2022/11/03 00:43:22;;;;;;;8.07;3.43;;;;;;;12.54;51.50;101022.78;829420;23;1085;-80
2022/11/03 00:43:42;;;;;;;8.27;3.30;;;;;;;12.56;51.85;101021.13;824456;24;1226;-79
2022/11/03 00:44:03;;;;;;;8.98;3.80;;;;;;;12.60;51.32;101032.53;829542;23;1109;-79
2022/11/03 00:44:24;;;;;;;10.40;3.80;;;;;;;12.61;51.51;101032.56;832092;23;1249;-80
2022/11/03 00:44:44;;;;;;;9.73;3.72;;;;;;;12.54;51.53;101021.91;832075;23;1171;-80
2022/11/03 00:45:05;;;;;;;7.00;3.30;;;;;;;12.64;51.31;101033.50;828376;23;1377;-79
2022/11/03 00:45:27;;;;;;;6.60;3.22;;;;;;;12.54;51.30;101022.78;828236;23;1318;-80
2022/11/03 00:45:48;;;;;;;7.72;3.33;;;;;;;12.53;51.69;101026.25;824399;24;1077;-80
2022/11/03 00:46:09;;;;;;;7.88;3.03;;;;;;;12.53;51.44;101036.72;825890;24;1066;-80
2022/11/03 00:46:33;;;;;;;7.70;2.97;;;;;;;12.55;51.69;101028.91;825479;24;947;-80
2022/11/03 00:46:55;;;;;;;6.80;2.80;;;;;;;12.53;51.90;101036.72;824388;23;850;-80
2022/11/03 00:47:18;;;;;;;5.60;2.72;;;;;;;12.44;51.51;101023.41;824447;23;1166;-78
2022/11/03 00:48:28;;;;;;;6.88;2.90;;;;;;;12.47;51.72;101031.34;828390;23;1301;-80
2022/11/03 00:48:29;;;;;;;8.77;3.40;;;;;;;12.46;51.96;101037.41;827842;23;1968;-80
2022/11/03 00:48:50;;;;;;;7.93;3.35;;;;;;;12.42;51.82;101025.13;824188;24;1124;-79
2022/11/03 00:49:10;;;;;;;8.40;3.33;;;;;;;12.44;51.85;101026.03;825634;24;1035;-80
2022/11/03 00:49:31;;;;;;;9.50;3.30;;;;;;;12.43;52.06;101025.13;829405;23;1057;-78
2022/11/03 00:49:51;;;;;;;8.83;3.13;;;;;;;12.46;52.19;101026.94;831851;23;998;-80
2022/11/03 00:50:12;;;;;;;9.23;3.17;;;;;;;12.49;52.20;101029.66;829451;23;1081;-80
2022/11/03 00:50:33;;;;;;;8.23;3.10;;;;;;;12.50;51.91;101031.44;828064;23;1259;-79
2022/11/03 00:50:54;;;;;;;10.73;3.15;;;;;;;12.46;51.90;101020.00;828214;23;1145;-79
2022/11/03 00:51:18;;;;;;;9.75;3.30;;;;;;;12.55;51.90;101042.88;829502;23;1076;-80
2022/11/03 00:51:39;;;;;;;8.20;3.40;;;;;;;12.46;52.01;101025.22;824411;24;1181;-79
2022/11/03 00:51:59;;;;;;;8.23;3.40;;;;;;;12.56;51.97;101033.31;825430;23;854;-79
2022/11/03 00:52:20;;;;;;;7.70;3.17;;;;;;;12.56;52.08;101031.59;830554;23;1212;-80
2022/11/03 00:52:43;;;;;;;8.23;3.10;;;;;;;12.55;51.94;101029.78;827753;23;1069;-79
2022/11/03 00:53:04;;;;;;;6.95;3.00;;;;;;;12.59;52.11;101033.38;831101;23;1161;-80
2022/11/03 00:53:24;;;;;;;7.97;3.10;;;;;;;12.57;52.18;101028.13;829477;23;971;-80
2022/11/03 00:53:48;;;;;;;7.18;3.05;;;;;;;12.56;52.10;101018.50;836149;23;1957;-79
2022/11/03 00:54:08;;;;;;;10.52;3.42;;;;;;;12.61;52.08;101027.31;835786;23;1145;-80
2022/11/03 00:54:29;;;;;;;10.52;3.20;;;;;;;12.68;51.61;101030.09;833295;23;1034;-80
2022/11/03 00:54:50;;;;;;;11.68;3.58;;;;;;;12.62;52.00;101025.59;828234;23;1131;-80
2022/11/03 00:55:10;;;;;;;8.65;3.30;;;;;;;12.67;51.66;101020.47;829460;23;1068;-79
2022/11/03 00:55:40;;;;;;;10.17;3.73;;;;;;;12.69;51.92;101031.84;827503;23;1114;-79
2022/11/03 00:56:01;;;;;;;9.05;3.50;;;;;;;12.68;51.96;101019.63;828160;23;843;-77
2022/11/03 00:56:27;;;;;;;8.45;3.42;;;;;;;12.72;51.63;101026.72;824259;24;1258;-80
2022/11/03 00:56:48;;;;;;;9.90;3.33;;;;;;;12.73;51.88;101033.72;832002;23;1213;-80
2022/11/03 00:57:09;;;;;;;9.30;3.30;;;;;;;12.64;51.78;101023.03;828249;23;1166;-80
2022/11/03 00:57:29;;;;;;;8.60;3.20;;;;;;;12.65;51.90;101035.28;828296;23;1260;-80
2022/11/03 00:57:52;;;;;;;6.90;3.17;;;;;;;12.58;51.79;101019.41;824437;23;1268;-80
2022/11/03 00:58:12;;;;;;;8.50;3.30;;;;;;;12.61;52.13;101015.97;824210;24;1087;-79
2022/11/03 00:58:33;;;;;;;11.00;3.50;;;;;;;12.61;51.97;101014.22;833434;23;967;-80
2022/11/03 00:58:55;;;;;;;11.20;3.40;;;;;;;12.62;52.09;101015.13;829721;23;805;-80
2022/11/03 00:59:15;;;;;;;12.57;3.65;;;;;;;12.65;51.84;101009.94;828003;23;1208;-80
2022/11/03 00:59:36;;;;;;;11.45;3.50;;;;;;;12.67;52.20;101023.09;827643;23;1360;-80
2022/11/03 01:00:02;;;;;;;13.17;3.60;;;;;;;12.66;52.24;101019.56;829368;23;771;-80
2022/11/03 01:00:23;;;;;;;10.00;3.20;;;;;;;12.70;52.01;101028.38;827949;23;951;-79
2022/11/03 01:00:44;;;;;;;9.70;3.10;;;;;;;12.74;51.91;101019.78;832107;23;1039;-80
2022/11/03 01:01:11;;;;;;;9.57;3.20;;;;;;;12.70;52.11;101004.81;828063;23;1274;-79
2022/11/03 01:01:36;;;;;;;8.45;3.30;;;;;;;12.68;52.15;101015.28;825630;24;957;-80
2022/11/03 01:01:56;;;;;;;9.27;3.47;;;;;;;12.71;52.16;101007.47;829513;23;787;-80
2022/11/03 01:02:17;;;;;;;10.30;3.40;;;;;;;12.69;51.70;101008.28;833338;23;1340;-80
2022/11/03 01:02:37;;;;;;;12.57;3.80;;;;;;;12.76;51.86;101023.28;831982;23;1153;-80
2022/11/03 01:02:58;;;;;;;11.53;3.47;;;;;;;12.74;51.98;101017.16;832148;23;1087;-79
2022/11/03 01:03:18;;;;;;;9.32;3.47;;;;;;;12.71;51.97;101017.06;824266;24;1278;-79
2022/11/03 01:06:48;;;;;;;8.30;3.40;;;;;;;12.73;51.89;101028.47;824352;24;1201;-80
2022/11/03 01:07:00;;;;;;;8.77;3.50;;;;;;;12.80;52.11;101017.28;828013;23;1285;-80
2022/11/03 01:07:20;;;;;;;7.78;3.38;;;;;;;12.76;52.22;101010.19;829348;23;1090;-80
2022/11/03 01:07:41;;;;;;;8.02;3.60;;;;;;;12.71;52.38;101002.25;835817;23;1217;-80
2022/11/03 01:08:03;;;;;;;9.20;3.80;;;;;;;12.71;52.29;101007.47;837490;23;705;-79
2022/11/03 01:08:23;;;;;;;8.82;3.55;;;;;;;12.70;52.42;101007.44;832052;23;1206;-80
2022/11/03 01:08:44;;;;;;;8.87;3.40;;;;;;;12.72;52.41;101006.63;829494;23;847;-80
2022/11/03 01:09:05;;;;;;;8.27;3.40;;;;;;;12.76;51.86;101012.81;832161;23;1078;-80
2022/11/03 01:09:37;;;;;;;8.30;3.30;;;;;;;12.73;52.39;101003.16;829206;23;986;-80
2022/11/03 01:09:58;;;;;;;6.45;3.00;;;;;;;12.78;52.39;101013.72;831843;23;1216;-80
2022/11/03 01:10:19;;;;;;;6.47;3.22;;;;;;;12.73;52.45;101012.75;825536;24;1026;-80
2022/11/03 01:11:42;;;;;;;7.00;3.28;;;;;;;12.67;52.39;101008.25;828368;23;1038;-80
2022/11/03 01:12:06;;;;;;;6.07;3.10;;;;;;;12.70;52.50;101013.56;825077;23;1089;-79
2022/11/03 01:12:27;;;;;;;6.60;3.10;;;;;;;12.66;52.39;101009.09;829511;23;876;-80
2022/11/03 01:12:47;;;;;;;8.03;3.10;;;;;;;12.70;52.65;101012.66;828374;23;1243;-80
2022/11/03 01:13:08;;;;;;;9.55;3.40;;;;;;;12.65;52.64;101014.31;829733;23;950;-80
2022/11/03 01:13:28;;;;;;;8.80;3.40;;;;;;;12.68;52.79;101001.28;832246;23;1154;-80
2022/11/03 01:13:49;;;;;;;10.30;3.50;;;;;;;12.65;52.36;100999.47;829727;23;1906;-80
2022/11/03 01:14:12;;;;;;;8.98;3.30;;;;;;;12.70;52.76;101012.66;829501;23;970;-81
2022/11/03 01:14:36;;;;;;;8.30;3.30;;;;;;;12.68;52.72;100998.66;832306;23;1197;-79
2022/11/03 01:14:56;;;;;;;6.40;3.20;;;;;;;12.72;52.84;101005.75;828365;23;1125;-80
2022/11/03 01:15:17;;;;;;;6.60;3.13;;;;;;;12.70;52.68;101007.44;824185;24;1160;-80
2022/11/03 01:15:37;;;;;;;6.80;3.20;;;;;;;12.73;52.83;101003.16;824337;24;1319;-80
2022/11/03 01:15:58;;;;;;;7.27;3.30;;;;;;;12.76;52.77;101002.34;828248;23;1231;-80
2022/11/03 01:16:19;;;;;;;7.60;3.30;;;;;;;12.79;52.78;101002.41;820288;24;1155;-80
2022/11/03 01:16:40;;;;;;;10.50;3.30;;;;;;;12.77;52.63;101001.50;825744;24;806;-80
2022/11/03 01:17:03;;;;;;;10.50;3.33;;;;;;;12.79;52.60;100997.16;832150;23;1371;-79
2022/11/03 01:17:27;;;;;;;9.15;3.30;;;;;;;12.86;52.65;101014.78;833426;23;942;-80
2022/11/03 01:17:47;;;;;;;6.40;3.00;;;;;;;12.78;52.68;101000.63;828183;23;806;-80
2022/11/03 01:18:08;;;;;;;6.50;3.00;;;;;;;12.81;52.58;101005.06;825735;24;1020;-80
2022/11/03 01:18:28;;;;;;;7.97;3.40;;;;;;;12.82;52.72;101012.06;836083;23;1201;-79
2022/11/03 01:18:50;;;;;;;8.25;3.63;;;;;;;12.84;52.62;101019.13;835714;23;1227;-80
2022/11/03 01:19:10;;;;;;;9.15;3.70;;;;;;;12.75;52.78;101003.19;837519;23;1103;-80
2022/11/03 01:19:31;;;;;;;9.77;3.60;;;;;;;12.83;52.51;101013.84;833247;23;951;-80
2022/11/03 01:19:52;;;;;;;9.23;3.30;;;;;;;12.75;52.51;100996.25;828217;23;1083;-78
2022/11/03 01:20:13;;;;;;;8.70;3.20;;;;;;;12.81;52.38;101008.59;833541;23;945;-78
2022/11/03 01:20:34;;;;;;;8.27;3.30;;;;;;;12.73;52.88;101003.16;833546;23;895;-78
2022/11/03 01:20:55;;;;;;;8.00;3.50;;;;;;;12.72;52.78;100990.91;832143;23;1116;-77
2022/11/03 01:21:16;;;;;;;10.52;3.80;;;;;;;12.76;52.98;101007.59;836145;23;1176;-77
2022/11/03 01:21:37;;;;;;;10.52;4.00;;;;;;;12.74;52.78;100993.59;831955;23;1216;-78
2022/11/03 01:21:58;;;;;;;10.57;3.80;;;;;;;12.75;52.85;100991.00;828435;23;1076;-78
2022/11/03 01:22:21;;;;;;;10.50;3.77;;;;;;;12.71;52.59;100986.53;821553;24;1011;-78
2022/11/03 01:22:42;;;;;;;9.73;3.67;;;;;;;12.77;52.79;100995.38;825774;23;807;-78
2022/11/03 01:23:03;;;;;;;8.13;3.53;;;;;;;12.80;52.90;101003.31;824220;24;1442;-78
2022/11/03 01:23:23;;;;;;;8.27;3.50;;;;;;;12.72;52.78;100995.28;824308;23;1150;-78
2022/11/03 01:23:44;;;;;;;7.95;3.30;;;;;;;12.75;52.65;101000.59;824458;24;1141;-78
2022/11/03 01:24:05;;;;;;;7.28;3.35;;;;;;;12.78;52.55;101008.50;824432;24;1247;-78
2022/11/03 01:24:25;;;;;;;6.63;3.20;;;;;;;12.79;52.91;101001.53;824386;24;1149;-78
2022/11/03 01:24:46;;;;;;;6.63;3.30;;;;;;;12.79;53.10;101012.00;824470;24;1232;-76
2022/11/03 01:25:07;;;;;;;8.63;3.20;;;;;;;12.74;53.13;100998.81;825742;24;1089;-78
2022/11/03 01:25:27;;;;;;;8.40;3.15;;;;;;;12.76;52.79;101004.97;825870;24;887;-78
2022/11/03 01:25:48;;;;;;;10.67;3.70;;;;;;;12.81;52.93;101007.69;825822;24;756;-77
2022/11/03 01:26:11;;;;;;;9.77;3.78;;;;;;;12.79;53.12;100999.78;829583;23;992;-78
2022/11/03 01:26:31;;;;;;;10.45;3.58;;;;;;;12.83;52.93;100993.78;832098;23;1280;-78
2022/11/03 01:26:52;;;;;;;9.53;3.10;;;;;;;12.84;52.95;100998.16;836367;23;1106;-78
2022/11/03 01:27:18;;;;;;;9.38;3.00;;;;;;;12.88;52.75;100996.50;836163;23;1132;-78
2022/11/03 01:27:39;;;;;;;7.40;3.20;;;;;;;12.89;52.82;100993.91;832234;23;1244;-78
2022/11/03 01:28:01;;;;;;;5.75;3.30;;;;;;;12.91;52.59;100995.69;828267;23;1128;-78
2022/11/03 01:28:21;;;;;;;7.50;3.55;;;;;;;12.90;52.79;100994.78;828363;23;1091;-78
2022/11/03 01:28:44;;;;;;;8.23;3.38;;;;;;;12.93;52.70;100992.28;824537;23;1040;-78
2022/11/03 01:29:05;;;;;;;12.00;3.58;;;;;;;12.98;52.77;101005.47;824438;24;1236;-78
2022/11/03 01:29:25;;;;;;;11.10;3.60;;;;;;;12.93;52.67;100994.91;824554;23;1432;-78
2022/11/03 01:29:46;;;;;;;9.88;3.47;;;;;;;12.95;52.39;100989.69;825850;23;788;-76
2022/11/03 01:30:07;;;;;;;6.22;3.03;;;;;;;13.00;52.69;100994.19;828262;23;1166;-78
2022/11/03 01:30:28;;;;;;;7.15;2.95;;;;;;;13.08;52.46;101004.81;828450;23;1125;-78
2022/11/03 01:30:48;;;;;;;9.10;3.20;;;;;;;13.00;52.64;100995.91;829907;23;815;-77
2022/11/03 01:31:20;;;;;;;8.52;3.20;;;;;;;13.09;52.50;101001.34;824449;24;1016;-78
2022/11/03 01:31:41;;;;;;;7.78;3.30;;;;;;;13.08;52.41;101002.19;824582;24;1347;-78
2022/11/03 01:32:01;;;;;;;9.98;3.30;;;;;;;13.16;52.42;101005.00;828352;23;1029;-78
2022/11/03 01:32:22;;;;;;;9.37;3.30;;;;;;;13.08;52.28;100990.84;834018;23;859;-78
2022/11/03 01:32:42;;;;;;;9.05;3.20;;;;;;;13.08;52.26;100999.59;829035;23;1033;-78
2022/11/03 01:33:03;;;;;;;7.43;3.10;;;;;;;13.11;52.29;100999.66;833988;23;1018;-78
2022/11/03 01:33:24;;;;;;;8.18;3.10;;;;;;;13.12;52.53;100995.28;834316;23;1023;-78
2022/11/03 01:33:45;;;;;;;7.88;3.10;;;;;;;13.11;52.20;100983.94;836919;23;1957;-78
2022/11/03 01:34:06;;;;;;;9.70;3.30;;;;;;;13.21;52.21;100994.63;833246;23;1188;-78
2022/11/03 01:34:26;;;;;;;9.18;3.42;;;;;;;13.21;52.36;100992.84;829245;23;1125;-77
2022/11/03 01:34:47;;;;;;;9.37;3.50;;;;;;;13.20;52.12;100995.47;828902;23;1236;-78
2022/11/03 01:35:07;;;;;;;9.45;3.80;;;;;;;13.16;52.21;100992.75;838691;23;1140;-78
2022/11/03 01:35:28;;;;;;;10.23;3.70;;;;;;;13.15;52.13;100984.91;841316;23;1162;-77
2022/11/03 01:35:52;;;;;;;10.63;3.63;;;;;;;13.18;52.18;100994.53;825498;24;1289;-77
2022/11/03 01:36:14;;;;;;;9.10;3.40;;;;;;;13.19;52.12;100994.56;830266;23;853;-78
2022/11/03 01:36:35;;;;;;;8.60;3.10;;;;;;;13.23;52.05;100979.78;826226;24;809;-78
2022/11/03 01:36:55;;;;;;;6.13;2.95;;;;;;;13.23;51.93;100987.66;832642;23;776;-78
2022/11/03 01:37:16;;;;;;;6.50;3.20;;;;;;;13.21;52.23;100979.75;829408;23;1126;-76
2022/11/03 01:37:36;;;;;;;5.60;3.17;;;;;;;13.28;51.90;100988.66;828482;23;1080;-78
2022/11/03 01:37:57;;;;;;;6.20;3.20;;;;;;;13.27;51.98;100989.50;834332;23;759;-77
2022/11/03 01:38:18;;;;;;;7.30;3.15;;;;;;;13.27;52.19;100989.50;832904;23;1032;-78
2022/11/03 01:38:38;;;;;;;9.20;3.30;;;;;;;13.22;52.22;100980.66;834142;23;934;-77
2022/11/03 01:38:59;;;;;;;10.30;3.30;;;;;;;13.25;52.14;100985.94;828809;23;1123;-78
2022/11/03 01:39:19;;;;;;;9.57;3.30;;;;;;;13.36;51.80;100999.28;830037;23;1092;-78
2022/11/03 01:39:40;;;;;;;7.73;3.30;;;;;;;13.32;51.81;100992.22;830184;23;720;-77
2022/11/03 01:40:01;;;;;;;7.70;3.40;;;;;;;13.25;52.02;100976.34;829910;23;757;-78
2022/11/03 01:40:22;;;;;;;7.30;3.20;;;;;;;13.28;52.12;100986.03;832238;23;1136;-78
2022/11/03 01:40:43;;;;;;;7.25;3.42;;;;;;;13.24;52.35;100989.44;828519;23;1218;-77
2022/11/03 01:41:07;;;;;;;7.90;3.33;;;;;;;13.29;51.96;100995.66;829967;23;979;-77
2022/11/03 01:41:28;;;;;;;7.75;3.50;;;;;;;13.17;52.13;100977.94;828709;23;1287;-77
2022/11/03 01:41:50;;;;;;;9.48;3.28;;;;;;;13.16;52.21;100971.81;832749;23;1167;-78
2022/11/03 01:42:13;;;;;;;9.88;3.40;;;;;;;13.24;51.98;100994.66;828270;23;1432;-76
2022/11/03 01:42:33;;;;;;;10.32;3.40;;;;;;;13.17;52.18;100977.94;824411;24;1492;-77
2022/11/03 01:42:54;;;;;;;9.48;3.35;;;;;;;13.20;52.14;100982.38;828579;23;1130;-78
2022/11/03 01:43:22;;;;;;;9.57;3.30;;;;;;;13.19;52.16;100983.19;829685;23;1039;-77
2022/11/03 01:43:43;;;;;;;10.10;3.40;;;;;;;13.19;52.51;100991.06;829911;23;799;-77
2022/11/03 01:44:12;;;;;;;10.43;3.30;;;;;;;13.19;52.30;100986.72;833561;23;1030;-77
2022/11/03 01:44:36;;;;;;;8.43;3.17;;;;;;;13.18;52.26;100986.66;828081;23;1373;-77
2022/11/03 01:44:56;;;;;;;8.60;3.22;;;;;;;13.15;52.48;100974.41;824618;23;1267;-78
2022/11/03 01:45:17;;;;;;;10.10;3.28;;;;;;;13.14;52.41;100976.13;825820;24;1080;-77
2022/11/03 01:45:38;;;;;;;9.48;3.00;;;;;;;13.11;52.14;100977.81;824335;24;1232;-78
2022/11/03 01:46:24;;;;;;;9.07;3.23;;;;;;;13.17;52.34;100993.66;824608;24;1000;-77
2022/11/03 01:47:00;;;;;;;13.60;3.33;;;;;;;13.11;52.33;100985.66;832498;23;1171;-78
2022/11/03 01:47:27;;;;;;;10.80;3.40;;;;;;;13.09;52.66;100972.53;832021;23;1100;-77
2022/11/03 01:47:48;;;;;;;8.57;3.50;;;;;;;13.07;52.32;100976.84;833693;23;800;-78
2022/11/03 01:48:11;;;;;;;12.95;3.97;;;;;;;13.08;52.52;100973.38;828152;23;1210;-78
2022/11/03 01:48:33;;;;;;;12.52;4.03;;;;;;;13.09;52.56;100985.63;832104;23;1186;-77
2022/11/03 01:49:06;;;;;;;8.40;3.45;;;;;;;13.06;52.69;100963.72;824584;24;855;-78